Artemis — SWZE — position and weather

sailwx.info

Track history (hours):
 
Tides and Currents Weather Stations Pressure Air Temp Water Temp Dewpoint Dewpoint Depression Visibility Wind Speed Wind Dir Waves Ship Positions

Artemis

Last reported at 2015-Jul-01 04:33 UTC. Time now 2015-Jul-01 04:55 UTC.
Position N 37°32' E 025°08'.

Length 89 m.

Type: Ship. MMSI: 237026300.

Date/timePositionNaut miles runAvg speedWind from/ knotsBaromVisibWave heightAir tempDewpointWater temp
2015-Jul-01 04:33N 37°32' E 025°08'1111.1
2015-Jul-01 03:33N 37°26' E 024°57'0 0.4
2015-Jul-01 02:33N 37°27' E 024°57'0 0.0
2015-Jul-01 01:33N 37°27' E 024°57'0 0.0
2015-Jul-01 00:33N 37°27' E 024°57'0 0.0
2015-Jun-30 23:30N 37°27' E 024°57'0 0.0
2015-Jun-30 22:33N 37°27' E 024°57'0 0.0
2015-Jun-30 21:33N 37°27' E 024°57'0 0.0
2015-Jun-30 20:32N 37°27' E 024°57'0 0.0
2015-Jun-30 19:33N 37°27' E 024°57'0 0.2
2015-Jun-30 18:33N 37°26' E 024°57'1211.9
2015-Jun-30 17:33N 37°16' E 025°03'1111.4
2015-Jun-30 16:33N 37°05' E 025°09'1413.9
2015-Jun-30 15:32N 37°07' E 024°51'5 0.5
2015-Jun-30 06:34N 37°06' E 024°57'8 7.9
2015-Jun-30 05:34N 37°07' E 025°07'1514.6
2015-Jun-30 04:34N 37°21' E 025°00'7 6.6
2015-Jun-30 03:34N 37°27' E 024°57'0 0.0
2015-Jun-30 02:34N 37°27' E 024°57'0 0.0
2015-Jun-30 01:34N 37°27' E 024°57'0 0.0
2015-Jun-30 00:33N 37°27' E 024°57'0 0.0
2015-Jun-29 23:33N 37°27' E 024°57'0 0.0
2015-Jun-29 22:33N 37°27' E 024°57'0 0.0
2015-Jun-29 21:34N 37°27' E 024°57'0 0.0
2015-Jun-29 20:33N 37°27' E 024°57'0 0.1
2015-Jun-29 19:33N 37°26' E 024°57'1010.2
2015-Jun-29 18:33N 37°31' E 024°45'43 7.1
2015-Jun-29 12:33N 37°39' E 023°52'1312.9
2015-Jun-29 11:33N 37°47' E 023°39'1010.1
2015-Jun-29 10:33N 37°57' E 023°38'0 0.0
2015-Jun-29 09:33N 37°57' E 023°38'0 0.0
2015-Jun-29 08:33N 37°57' E 023°38'0 0.0
2015-Jun-29 07:33N 37°57' E 023°38'0 0.0
2015-Jun-29 06:33N 37°57' E 023°38'0 0.0
2015-Jun-29 05:33N 37°57' E 023°38'0 0.0
2015-Jun-29 04:34N 37°57' E 023°38'0 0.0
2015-Jun-29 03:33N 37°57' E 023°38'0 0.0
2015-Jun-29 02:33N 37°57' E 023°38'0 0.0
2015-Jun-29 01:24N 37°57' E 023°38'0 0.0
2015-Jun-29 00:33N 37°57' E 023°38'0 0.0
2015-Jun-28 23:33N 37°57' E 023°38'0 0.0
2015-Jun-28 22:23N 37°57' E 023°38'0 0.0
2015-Jun-28 21:33N 37°57' E 023°38'3 3.2
2015-Jun-28 20:34N 37°54' E 023°36'1311.2
2015-Jun-28 19:26N 37°45' E 023°25'1012.0
2015-Jun-28 18:33N 37°53' E 023°34'2 2.2
2015-Jun-28 17:33N 37°54' E 023°36'1312.7
2015-Jun-28 16:33N 37°45' E 023°25'9 8.8
2015-Jun-28 15:33N 37°36' E 023°25'6 1.1
2015-Jun-28 10:24N 37°30' E 023°27'6 6.4
2015-Jun-28 09:26N 37°36' E 023°25'9 9.8
2015-Jun-28 08:33N 37°45' E 023°25'1312.7
2015-Jun-28 07:33N 37°55' E 023°36'3 3.0
2015-Jun-28 06:33N 37°57' E 023°38'0 0.0
2015-Jun-28 05:33N 37°57' E 023°38'0 0.0
2015-Jun-28 04:33N 37°57' E 023°38'0 0.0
2015-Jun-28 03:33N 37°57' E 023°38'0 0.0
2015-Jun-28 02:34N 37°57' E 023°38'0 0.0
2015-Jun-28 01:34N 37°57' E 023°38'0 0.0
2015-Jun-28 00:33N 37°57' E 023°38'0 0.0
2015-Jun-27 23:33N 37°57' E 023°38'0 0.0
2015-Jun-27 22:33N 37°57' E 023°38'0 0.0
2015-Jun-27 21:34N 37°57' E 023°38'0 0.0
2015-Jun-27 20:33N 37°57' E 023°38'0 0.0
2015-Jun-27 19:34N 37°57' E 023°38'0 0.0
2015-Jun-27 18:33N 37°57' E 023°38'3 3.2
2015-Jun-27 17:33N 37°54' E 023°36'1312.8
2015-Jun-27 16:33N 37°45' E 023°25'7 6.7
2015-Jun-27 15:33N 37°50' E 023°31'9 9.3
2015-Jun-27 14:33N 37°57' E 023°39'0 0.0
2015-Jun-27 13:33N 37°57' E 023°39'0 0.0
2015-Jun-27 12:33N 37°57' E 023°39'7 6.7
2015-Jun-27 11:33N 37°51' E 023°33'9 8.5
2015-Jun-27 10:30N 37°45' E 023°25'9 9.7
2015-Jun-27 09:33N 37°52' E 023°33'7 6.7
2015-Jun-27 08:33N 37°57' E 023°39'0 0.0
2015-Jun-27 07:33N 37°57' E 023°39'0 0.0
2015-Jun-27 06:33N 37°57' E 023°39'0 0.0
2015-Jun-27 05:34N 37°57' E 023°39'0 0.0
2015-Jun-27 04:34N 37°57' E 023°39'0 0.0
2015-Jun-27 03:34N 37°57' E 023°39'0 0.0
2015-Jun-27 02:33N 37°57' E 023°39'0 0.0
2015-Jun-27 01:34N 37°57' E 023°39'0 0.0
2015-Jun-27 00:34N 37°57' E 023°39'0 0.0
2015-Jun-26 23:34N 37°57' E 023°39'0 0.0
2015-Jun-26 22:33N 37°57' E 023°39'0 0.0
2015-Jun-26 21:34N 37°57' E 023°39'0 0.0
2015-Jun-26 20:34N 37°57' E 023°39'0 0.0
2015-Jun-26 19:33N 37°57' E 023°39'0 0.0
2015-Jun-26 18:33N 37°57' E 023°39'0 0.0
2015-Jun-26 17:33N 37°57' E 023°39'0 0.0
2015-Jun-26 16:33N 37°57' E 023°39'0 0.0
2015-Jun-26 15:33N 37°57' E 023°39'0 0.0
2015-Jun-26 14:34N 37°57' E 023°39'10 9.5
2015-Jun-26 13:33N 37°49' E 023°30'7 6.6
2015-Jun-26 12:33N 37°45' E 023°25'1313.5
2015-Jun-26 11:33N 37°55' E 023°36'3 2.6
2015-Jun-26 10:33N 37°57' E 023°38'1313.4
2015-Jun-26 09:33N 37°47' E 023°26'1 0.7
2015-Jun-26 08:33N 37°47' E 023°26'1413.8
2015-Jun-26 07:34N 37°56' E 023°38'0 0.3
2015-Jun-26 06:34N 37°57' E 023°38'6 5.7
2015-Jun-26 05:33N 37°52' E 023°34'10 0.8
2015-Jun-25 16:14N 37°45' E 023°25'812.6
2015-Jun-25 15:33N 37°51' E 023°33'1 0.7
2015-Jun-25 13:33N 37°52' E 023°33'10 9.5
2015-Jun-25 12:32N 37°45' E 023°25'9 8.8
2015-Jun-25 11:33N 37°51' E 023°32'7 7.1
2015-Jun-25 10:33N 37°57' E 023°38'1313.1
2015-Jun-25 09:33N 37°47' E 023°27'1 0.7
2015-Jun-25 08:33N 37°47' E 023°26'1413.7
2015-Jun-25 07:33N 37°57' E 023°38'0 0.0
2015-Jun-25 06:33N 37°57' E 023°39'0 0.0
2015-Jun-25 05:33N 37°57' E 023°39'0 0.0
2015-Jun-25 04:33N 37°57' E 023°39'0 0.0
2015-Jun-25 03:33N 37°57' E 023°39'0 0.0
2015-Jun-25 02:33N 37°57' E 023°39'0 0.0
2015-Jun-25 01:33N 37°57' E 023°39'0 0.0
2015-Jun-25 00:33N 37°57' E 023°39'0 0.0
2015-Jun-24 23:33N 37°57' E 023°39'0 0.0
2015-Jun-24 22:28N 37°57' E 023°39'0 0.0
2015-Jun-24 21:33N 37°57' E 023°39'0 0.0
2015-Jun-24 20:33N 37°57' E 023°39'0 0.0
2015-Jun-24 19:33N 37°57' E 023°39'0 0.0
2015-Jun-24 18:33N 37°57' E 023°39'0 0.0
2015-Jun-24 17:33N 37°57' E 023°39'0 0.0
2015-Jun-24 16:33N 37°57' E 023°39'0 0.0
2015-Jun-24 15:33N 37°57' E 023°39'0 0.0
2015-Jun-24 14:33N 37°57' E 023°39'7 6.7
2015-Jun-24 13:33N 37°51' E 023°33'9 9.0
2015-Jun-24 12:33N 37°45' E 023°26'9 9.1
2015-Jun-24 11:33N 37°52' E 023°33'7 6.7
2015-Jun-24 10:33N 37°57' E 023°39'0 0.0
2015-Jun-24 09:33N 37°57' E 023°39'0 0.0
2015-Jun-24 08:33N 37°57' E 023°39'0 0.0
2015-Jun-24 07:33N 37°57' E 023°39'9 8.8
2015-Jun-24 06:33N 37°50' E 023°31'6 6.2
2015-Jun-24 05:33N 37°46' E 023°25'1414.1
2015-Jun-24 04:33N 37°56' E 023°37'1 0.9
2015-Jun-24 03:34N 37°57' E 023°38'0 0.0
2015-Jun-24 02:34N 37°57' E 023°38'0 0.0
2015-Jun-24 01:33N 37°57' E 023°38'0 0.0
2015-Jun-24 00:33N 37°57' E 023°38'0 0.0
2015-Jun-23 23:33N 37°57' E 023°38'0 0.0
2015-Jun-23 22:34N 37°57' E 023°38'0 0.0
2015-Jun-23 21:33N 37°57' E 023°38'0 0.0
2015-Jun-23 20:33N 37°57' E 023°38'0 0.0
2015-Jun-23 19:33N 37°57' E 023°38'0 0.0
2015-Jun-23 19:06N 37°57' E 023°38'63 2.4
2015-Jun-22 16:33N 37°32' E 024°52'6 6.3
2015-Jun-22 15:33N 37°27' E 024°57'0 0.0
2015-Jun-22 14:33N 37°27' E 024°57'9 8.9
2015-Jun-22 13:34N 37°22' E 025°06'1414.1
2015-Jun-22 12:34N 37°11' E 025°18'3 2.8
2015-Jun-22 11:34N 37°09' E 025°20'9 9.0
2015-Jun-22 10:32N 37°05' E 025°09'1111.7
2015-Jun-22 09:33N 37°16' E 025°03'1212.0
2015-Jun-22 08:33N 37°27' E 024°57'0 0.0
2015-Jun-22 07:33N 37°27' E 024°57'0 0.0
2015-Jun-22 06:33N 37°27' E 024°57'0 0.0
2015-Jun-22 05:33N 37°27' E 024°57'0 0.0
2015-Jun-22 04:33N 37°27' E 024°57'3 2.8
2015-Jun-22 03:33N 37°29' E 024°58'5413.5
2015-Jun-21 23:31N 37°38' E 023°50'1313.2
2015-Jun-21 22:33N 37°47' E 023°39'10 9.8
2015-Jun-21 21:33N 37°57' E 023°38'0 0.0
2015-Jun-21 20:33N 37°57' E 023°38'1313.0
2015-Jun-21 19:33N 37°47' E 023°27'4 4.1
2015-Jun-21 18:34N 37°50' E 023°31'8 8.4
2015-Jun-21 17:33N 37°56' E 023°38'1414.1
2015-Jun-21 16:33N 37°46' E 023°25'10 9.9
2015-Jun-21 15:33N 37°36' E 023°25'6 6.0
2015-Jun-21 14:30N 37°30' E 023°27'0 0.0
2015-Jun-21 13:33N 37°30' E 023°27'0 0.0
2015-Jun-21 10:20N 37°30' E 023°27'5 6.6
2015-Jun-21 09:31N 37°35' E 023°24'1010.3
2015-Jun-21 08:32N 37°45' E 023°25'1313.0
2015-Jun-21 07:34N 37°55' E 023°36'3 3.0
2015-Jun-21 06:33N 37°57' E 023°39'0 0.0
2015-Jun-21 05:33N 37°57' E 023°39'  
Track history (hours):
 
Tides and Currents Weather Stations Pressure Air Temp Water Temp Dewpoint Dewpoint Depression Visibility Wind Speed Wind Dir Waves Ship Positions

Artemis

Last reported at 2015-Jul-01 04:33 UTC. Time now 2015-Jul-01 04:55 UTC.
Position N 37°32' E 025°08'.

Length 89 m.

Type: Ship. MMSI: 237026300.

Date/timePositionNaut miles runAvg speedWind from/ knotsBaromVisibWave heightAir tempDewpointWater temp
2015-Jul-01 04:33N 37°32' E 025°08'1111.1
2015-Jul-01 03:33N 37°26' E 024°57'0 0.4
2015-Jul-01 02:33N 37°27' E 024°57'0 0.0
2015-Jul-01 01:33N 37°27' E 024°57'0 0.0
2015-Jul-01 00:33N 37°27' E 024°57'0 0.0
2015-Jun-30 23:30N 37°27' E 024°57'0 0.0
2015-Jun-30 22:33N 37°27' E 024°57'0 0.0
2015-Jun-30 21:33N 37°27' E 024°57'0 0.0
2015-Jun-30 20:32N 37°27' E 024°57'0 0.0
2015-Jun-30 19:33N 37°27' E 024°57'0 0.2
2015-Jun-30 18:33N 37°26' E 024°57'1211.9
2015-Jun-30 17:33N 37°16' E 025°03'1111.4
2015-Jun-30 16:33N 37°05' E 025°09'1413.9
2015-Jun-30 15:32N 37°07' E 024°51'5 0.5
2015-Jun-30 06:34N 37°06' E 024°57'8 7.9
2015-Jun-30 05:34N 37°07' E 025°07'1514.6
2015-Jun-30 04:34N 37°21' E 025°00'7 6.6
2015-Jun-30 03:34N 37°27' E 024°57'0 0.0
2015-Jun-30 02:34N 37°27' E 024°57'0 0.0
2015-Jun-30 01:34N 37°27' E 024°57'0 0.0
2015-Jun-30 00:33N 37°27' E 024°57'0 0.0
2015-Jun-29 23:33N 37°27' E 024°57'0 0.0
2015-Jun-29 22:33N 37°27' E 024°57'0 0.0
2015-Jun-29 21:34N 37°27' E 024°57'0 0.0
2015-Jun-29 20:33N 37°27' E 024°57'0 0.1
2015-Jun-29 19:33N 37°26' E 024°57'1010.2
2015-Jun-29 18:33N 37°31' E 024°45'43 7.1
2015-Jun-29 12:33N 37°39' E 023°52'1312.9
2015-Jun-29 11:33N 37°47' E 023°39'1010.1
2015-Jun-29 10:33N 37°57' E 023°38'0 0.0
2015-Jun-29 09:33N 37°57' E 023°38'0 0.0
2015-Jun-29 08:33N 37°57' E 023°38'0 0.0
2015-Jun-29 07:33N 37°57' E 023°38'0 0.0
2015-Jun-29 06:33N 37°57' E 023°38'0 0.0
2015-Jun-29 05:33N 37°57' E 023°38'0 0.0
2015-Jun-29 04:34N 37°57' E 023°38'0 0.0
2015-Jun-29 03:33N 37°57' E 023°38'0 0.0
2015-Jun-29 02:33N 37°57' E 023°38'0 0.0
2015-Jun-29 01:24N 37°57' E 023°38'0 0.0
2015-Jun-29 00:33N 37°57' E 023°38'0 0.0
2015-Jun-28 23:33N 37°57' E 023°38'0 0.0
2015-Jun-28 22:23N 37°57' E 023°38'0 0.0
2015-Jun-28 21:33N 37°57' E 023°38'3 3.2
2015-Jun-28 20:34N 37°54' E 023°36'1311.2
2015-Jun-28 19:26N 37°45' E 023°25'1012.0
2015-Jun-28 18:33N 37°53' E 023°34'2 2.2
2015-Jun-28 17:33N 37°54' E 023°36'1312.7
2015-Jun-28 16:33N 37°45' E 023°25'9 8.8
2015-Jun-28 15:33N 37°36' E 023°25'6 1.1
2015-Jun-28 10:24N 37°30' E 023°27'6 6.4
2015-Jun-28 09:26N 37°36' E 023°25'9 9.8
2015-Jun-28 08:33N 37°45' E 023°25'1312.7
2015-Jun-28 07:33N 37°55' E 023°36'3 3.0
2015-Jun-28 06:33N 37°57' E 023°38'0 0.0
2015-Jun-28 05:33N 37°57' E 023°38'0 0.0
2015-Jun-28 04:33N 37°57' E 023°38'0 0.0
2015-Jun-28 03:33N 37°57' E 023°38'0 0.0
2015-Jun-28 02:34N 37°57' E 023°38'0 0.0
2015-Jun-28 01:34N 37°57' E 023°38'0 0.0
2015-Jun-28 00:33N 37°57' E 023°38'0 0.0
2015-Jun-27 23:33N 37°57' E 023°38'0 0.0
2015-Jun-27 22:33N 37°57' E 023°38'0 0.0
2015-Jun-27 21:34N 37°57' E 023°38'0 0.0
2015-Jun-27 20:33N 37°57' E 023°38'0 0.0
2015-Jun-27 19:34N 37°57' E 023°38'0 0.0
2015-Jun-27 18:33N 37°57' E 023°38'3 3.2
2015-Jun-27 17:33N 37°54' E 023°36'1312.8
2015-Jun-27 16:33N 37°45' E 023°25'7 6.7
2015-Jun-27 15:33N 37°50' E 023°31'9 9.3
2015-Jun-27 14:33N 37°57' E 023°39'0 0.0
2015-Jun-27 13:33N 37°57' E 023°39'0 0.0
2015-Jun-27 12:33N 37°57' E 023°39'7 6.7
2015-Jun-27 11:33N 37°51' E 023°33'9 8.5
2015-Jun-27 10:30N 37°45' E 023°25'9 9.7
2015-Jun-27 09:33N 37°52' E 023°33'7 6.7
2015-Jun-27 08:33N 37°57' E 023°39'0 0.0
2015-Jun-27 07:33N 37°57' E 023°39'0 0.0
2015-Jun-27 06:33N 37°57' E 023°39'0 0.0
2015-Jun-27 05:34N 37°57' E 023°39'0 0.0
2015-Jun-27 04:34N 37°57' E 023°39'0 0.0
2015-Jun-27 03:34N 37°57' E 023°39'0 0.0
2015-Jun-27 02:33N 37°57' E 023°39'0 0.0
2015-Jun-27 01:34N 37°57' E 023°39'0 0.0
2015-Jun-27 00:34N 37°57' E 023°39'0 0.0
2015-Jun-26 23:34N 37°57' E 023°39'0 0.0
2015-Jun-26 22:33N 37°57' E 023°39'0 0.0
2015-Jun-26 21:34N 37°57' E 023°39'0 0.0
2015-Jun-26 20:34N 37°57' E 023°39'0 0.0
2015-Jun-26 19:33N 37°57' E 023°39'0 0.0
2015-Jun-26 18:33N 37°57' E 023°39'0 0.0
2015-Jun-26 17:33N 37°57' E 023°39'0 0.0
2015-Jun-26 16:33N 37°57' E 023°39'0 0.0
2015-Jun-26 15:33N 37°57' E 023°39'0 0.0
2015-Jun-26 14:34N 37°57' E 023°39'10 9.5
2015-Jun-26 13:33N 37°49' E 023°30'7 6.6
2015-Jun-26 12:33N 37°45' E 023°25'1313.5
2015-Jun-26 11:33N 37°55' E 023°36'3 2.6
2015-Jun-26 10:33N 37°57' E 023°38'1313.4
2015-Jun-26 09:33N 37°47' E 023°26'1 0.7
2015-Jun-26 08:33N 37°47' E 023°26'1413.8
2015-Jun-26 07:34N 37°56' E 023°38'0 0.3
2015-Jun-26 06:34N 37°57' E 023°38'6 5.7
2015-Jun-26 05:33N 37°52' E 023°34'10 0.8
2015-Jun-25 16:14N 37°45' E 023°25'812.6
2015-Jun-25 15:33N 37°51' E 023°33'1 0.7
2015-Jun-25 13:33N 37°52' E 023°33'10 9.5
2015-Jun-25 12:32N 37°45' E 023°25'9 8.8
2015-Jun-25 11:33N 37°51' E 023°32'7 7.1
2015-Jun-25 10:33N 37°57' E 023°38'1313.1
2015-Jun-25 09:33N 37°47' E 023°27'1 0.7
2015-Jun-25 08:33N 37°47' E 023°26'1413.7
2015-Jun-25 07:33N 37°57' E 023°38'0 0.0
2015-Jun-25 06:33N 37°57' E 023°39'0 0.0
2015-Jun-25 05:33N 37°57' E 023°39'0 0.0
2015-Jun-25 04:33N 37°57' E 023°39'0 0.0
2015-Jun-25 03:33N 37°57' E 023°39'0 0.0
2015-Jun-25 02:33N 37°57' E 023°39'0 0.0
2015-Jun-25 01:33N 37°57' E 023°39'0 0.0
2015-Jun-25 00:33N 37°57' E 023°39'0 0.0
2015-Jun-24 23:33N 37°57' E 023°39'0 0.0
2015-Jun-24 22:28N 37°57' E 023°39'0 0.0
2015-Jun-24 21:33N 37°57' E 023°39'0 0.0
2015-Jun-24 20:33N 37°57' E 023°39'0 0.0
2015-Jun-24 19:33N 37°57' E 023°39'0 0.0
2015-Jun-24 18:33N 37°57' E 023°39'0 0.0
2015-Jun-24 17:33N 37°57' E 023°39'0 0.0
2015-Jun-24 16:33N 37°57' E 023°39'0 0.0
2015-Jun-24 15:33N 37°57' E 023°39'0 0.0
2015-Jun-24 14:33N 37°57' E 023°39'7 6.7
2015-Jun-24 13:33N 37°51' E 023°33'9 9.0
2015-Jun-24 12:33N 37°45' E 023°26'9 9.1
2015-Jun-24 11:33N 37°52' E 023°33'7 6.7
2015-Jun-24 10:33N 37°57' E 023°39'0 0.0
2015-Jun-24 09:33N 37°57' E 023°39'0 0.0
2015-Jun-24 08:33N 37°57' E 023°39'0 0.0
2015-Jun-24 07:33N 37°57' E 023°39'9 8.8
2015-Jun-24 06:33N 37°50' E 023°31'6 6.2
2015-Jun-24 05:33N 37°46' E 023°25'1414.1
2015-Jun-24 04:33N 37°56' E 023°37'1 0.9
2015-Jun-24 03:34N 37°57' E 023°38'0 0.0
2015-Jun-24 02:34N 37°57' E 023°38'0 0.0
2015-Jun-24 01:33N 37°57' E 023°38'0 0.0
2015-Jun-24 00:33N 37°57' E 023°38'0 0.0
2015-Jun-23 23:33N 37°57' E 023°38'0 0.0
2015-Jun-23 22:34N 37°57' E 023°38'0 0.0
2015-Jun-23 21:33N 37°57' E 023°38'0 0.0
2015-Jun-23 20:33N 37°57' E 023°38'0 0.0
2015-Jun-23 19:33N 37°57' E 023°38'0 0.0
2015-Jun-23 19:06N 37°57' E 023°38'63 2.4
2015-Jun-22 16:33N 37°32' E 024°52'6 6.3
2015-Jun-22 15:33N 37°27' E 024°57'0 0.0
2015-Jun-22 14:33N 37°27' E 024°57'9 8.9
2015-Jun-22 13:34N 37°22' E 025°06'1414.1
2015-Jun-22 12:34N 37°11' E 025°18'3 2.8
2015-Jun-22 11:34N 37°09' E 025°20'9 9.0
2015-Jun-22 10:32N 37°05' E 025°09'1111.7
2015-Jun-22 09:33N 37°16' E 025°03'1212.0
2015-Jun-22 08:33N 37°27' E 024°57'0 0.0
2015-Jun-22 07:33N 37°27' E 024°57'0 0.0
2015-Jun-22 06:33N 37°27' E 024°57'0 0.0
2015-Jun-22 05:33N 37°27' E 024°57'0 0.0
2015-Jun-22 04:33N 37°27' E 024°57'3 2.8
2015-Jun-22 03:33N 37°29' E 024°58'5413.5
2015-Jun-21 23:31N 37°38' E 023°50'1313.2
2015-Jun-21 22:33N 37°47' E 023°39'10 9.8
2015-Jun-21 21:33N 37°57' E 023°38'0 0.0
2015-Jun-21 20:33N 37°57' E 023°38'1313.0
2015-Jun-21 19:33N 37°47' E 023°27'4 4.1
2015-Jun-21 18:34N 37°50' E 023°31'8 8.4
2015-Jun-21 17:33N 37°56' E 023°38'1414.1
2015-Jun-21 16:33N 37°46' E 023°25'10 9.9
2015-Jun-21 15:33N 37°36' E 023°25'6 6.0
2015-Jun-21 14:30N 37°30' E 023°27'0 0.0
2015-Jun-21 13:33N 37°30' E 023°27'0 0.0
2015-Jun-21 10:20N 37°30' E 023°27'5 6.6
2015-Jun-21 09:31N 37°35' E 023°24'1010.3
2015-Jun-21 08:32N 37°45' E 023°25'1313.0
2015-Jun-21 07:34N 37°55' E 023°36'3 3.0
2015-Jun-21 06:33N 37°57' E 023°39'0 0.0
2015-Jun-21 05:33N 37°57' E 023°39'  

Dump ship's entire track history